Time;durP1;ratioP1;P1;durP2;ratioP2;P2;SDS_P1;SDS_P2;PMS_P1;PMS_P2;Temp;Humidity;BMP_temperature;BMP_pressure;BME280_temperature;BME280_humidity;BME280_pressure;Samples;Min_cycle;Max_cycle;Signal;HPM_P1;HPM_P2
2022/02/15 00:02:08;;;;;;;2.88;0.20;;;;;;;3.16;55.58;100159.94;5000626;28;20096;-81
2022/02/15 00:04:33;;;;;;;1.00;0.30;;;;;;;3.09;56.08;100166.13;4990677;28;20144;-79
2022/02/15 00:06:59;;;;;;;0.88;0.20;;;;;;;3.33;55.55;100153.59;5009900;28;20626;-79
2022/02/15 00:09:25;;;;;;;2.97;0.35;;;;;;;2.84;56.74;100170.03;4986992;28;20646;-82
2022/02/15 00:11:50;;;;;;;3.25;0.30;;;;;;;2.98;56.33;100153.41;5002787;28;20029;-80
2022/02/15 00:14:17;;;;;;;1.10;0.22;;;;;;;3.47;54.77;100163.63;5005152;28;20029;-79
2022/02/15 00:16:43;;;;;;;1.95;0.20;;;;;;;3.64;54.81;100168.44;5008861;28;20034;-79
2022/02/15 00:19:09;;;;;;;2.10;0.40;;;;;;;3.59;54.96;100171.97;5006013;28;20174;-80
2022/02/15 00:21:35;;;;;;;3.05;0.40;;;;;;;2.79;56.92;100174.44;4988899;28;20038;-80
2022/02/15 00:24:01;;;;;;;2.65;0.28;;;;;;;3.29;56.18;100176.06;4985546;28;20099;-79
2022/02/15 00:26:27;;;;;;;4.40;1.23;;;;;;;3.35;55.99;100181.09;5008534;28;20594;-81
2022/02/15 00:28:53;;;;;;;2.85;0.22;;;;;;;2.73;57.82;100171.13;5001867;28;20136;-79
2022/02/15 00:31:19;;;;;;;5.95;0.60;;;;;;;2.78;57.91;100183.94;4991750;28;20030;-81
2022/02/15 00:33:44;;;;;;;0.65;0.20;;;;;;;3.42;56.21;100184.38;5007427;28;20050;-80
2022/02/15 00:36:12;;;;;;;1.88;0.20;;;;;;;3.07;57.46;100188.53;5010672;28;20096;-82
2022/02/15 00:38:41;;;;;;;3.30;0.60;;;;;;;3.52;56.25;100172.97;5003860;28;20602;-81
2022/02/15 00:41:07;;;;;;;6.68;0.90;;;;;;;3.67;55.74;100182.13;4985296;28;20506;-80
2022/02/15 00:43:34;;;;;;;3.60;0.40;;;;;;;3.16;57.08;100198.66;5008334;28;20045;-81
2022/02/15 00:46:02;;;;;;;4.20;0.30;;;;;;;3.17;57.48;100195.19;4981951;28;20069;-81
2022/02/15 00:48:28;;;;;;;7.13;0.70;;;;;;;3.07;57.45;100188.53;5007056;28;20644;-78
2022/02/15 00:50:54;;;;;;;11.70;0.88;;;;;;;2.92;57.87;100191.41;4988344;28;20107;-81
2022/02/15 00:53:19;;;;;;;4.28;0.30;;;;;;;3.48;56.52;100204.09;4999172;28;20520;-82
2022/02/15 00:55:48;;;;;;;4.43;0.82;;;;;;;3.39;56.61;100198.22;5007740;28;20076;-83
2022/02/15 00:58:14;;;;;;;3.78;0.50;;;;;;;3.87;55.47;100197.16;4992560;28;20045;-80
2022/02/15 01:00:40;;;;;;;1.73;1.08;;;;;;;3.34;57.23;100202.66;4993467;28;20061;-82
2022/02/15 01:03:06;;;;;;;1.67;0.40;;;;;;;3.17;57.99;100210.69;5003294;28;20049;-79
2022/02/15 01:05:31;;;;;;;4.13;0.38;;;;;;;3.68;56.72;100211.41;4991375;28;20034;-81
2022/02/15 01:07:57;;;;;;;3.00;0.20;;;;;;;2.74;59.19;100221.84;5007225;28;20044;-78
2022/02/15 01:10:23;;;;;;;2.58;0.50;;;;;;;3.37;58.22;100218.06;5008952;28;20037;-78
2022/02/15 01:12:49;;;;;;;5.85;0.88;;;;;;;3.25;58.77;100223.47;5005228;28;20094;-81
2022/02/15 01:15:16;;;;;;;4.22;0.70;;;;;;;3.29;58.97;100214.81;5003761;28;20051;-82
2022/02/15 01:17:43;;;;;;;6.03;0.45;;;;;;;3.22;59.90;100222.66;4987435;28;20507;-82
2022/02/15 01:20:09;;;;;;;5.80;0.70;;;;;;;2.87;61.08;100221.63;5009488;28;20132;-79
2022/02/15 01:22:35;;;;;;;3.42;0.50;;;;;;;3.05;60.66;100217.84;5017829;28;20038;-82
2022/02/15 01:25:03;;;;;;;6.10;0.50;;;;;;;3.28;59.85;100235.47;5009594;28;20045;-80
2022/02/15 01:27:29;;;;;;;7.35;0.52;;;;;;;3.31;59.67;100232.84;5002746;28;20574;-80
2022/02/15 01:29:56;;;;;;;6.68;0.47;;;;;;;2.99;60.53;100231.72;4993952;28;20409;-80
2022/02/15 01:32:21;;;;;;;3.45;0.45;;;;;;;3.34;59.64;100243.13;5010589;28;20280;-80
2022/02/15 01:34:48;;;;;;;4.90;0.40;;;;;;;3.17;59.96;100236.50;4999750;28;20039;-82
2022/02/15 01:37:13;;;;;;;3.10;0.75;;;;;;;3.03;60.33;100235.94;5004729;28;20041;-82
2022/02/15 01:39:40;;;;;;;5.75;0.65;;;;;;;3.55;58.46;100245.25;5001617;28;20033;-79
2022/02/15 01:42:07;;;;;;;3.58;1.27;;;;;;;3.41;58.83;100239.53;4986806;28;20160;-80
2022/02/15 01:44:35;;;;;;;8.98;0.60;;;;;;;3.13;59.73;100241.75;5001393;28;20117;-82
2022/02/15 01:47:04;;;;;;;4.35;0.60;;;;;;;2.99;60.30;100249.78;4985798;28;21630;-81
2022/02/15 01:49:29;;;;;;;6.72;0.40;;;;;;;3.53;58.92;100259.09;4986716;28;20038;-81
2022/02/15 01:51:55;;;;;;;4.40;0.63;;;;;;;3.67;58.39;100256.22;5006949;28;20413;-82
2022/02/15 01:54:21;;;;;;;2.20;0.28;;;;;;;3.61;58.43;100258.94;5006602;28;20018;-81
2022/02/15 01:56:47;;;;;;;6.57;0.65;;;;;;;3.31;59.15;100253.50;5006869;28;20045;-82
2022/02/15 01:59:14;;;;;;;14.88;0.40;;;;;;;3.23;59.42;100255.38;5004804;28;20048;-79
2022/02/15 02:01:40;;;;;;;4.57;0.57;;;;;;;3.18;59.65;100258.88;4988172;28;20387;-80
2022/02/15 02:05:47;;;;;;;5.93;0.52;;;;;;;3.64;58.06;100256.28;4991769;28;20041;-80
2022/02/15 02:06:56;;;;;;;10.38;0.73;;;;;;;3.30;58.97;100257.81;5007148;28;20030;-81
2022/02/15 02:09:23;;;;;;;12.23;1.73;;;;;;;3.22;59.25;100269.16;5004808;28;20013;-80
2022/02/15 02:11:49;;;;;;;9.57;0.77;;;;;;;3.55;58.25;100270.25;4988271;28;20065;-79
2022/02/15 02:14:23;;;;;;;4.10;0.57;;;;;;;3.72;57.96;100272.50;5004214;28;20069;-79
2022/02/15 02:16:52;;;;;;;4.07;0.55;;;;;;;3.60;58.15;100278.75;5002796;28;20108;-81
2022/02/15 02:19:28;;;;;;;4.13;0.57;;;;;;;3.42;58.88;100274.81;4987999;28;20400;-78
2022/02/15 02:22:01;;;;;;;7.65;0.50;;;;;;;3.64;57.83;100287.31;4992171;28;20068;-80
2022/02/15 02:24:27;;;;;;;5.00;0.65;;;;;;;3.68;57.77;100282.03;5005857;28;20132;-80
2022/02/15 02:26:53;;;;;;;13.02;1.15;;;;;;;3.01;60.34;100291.91;4987330;28;20034;-80
2022/02/15 02:29:19;;;;;;;5.72;0.77;;;;;;;3.47;59.11;100291.09;4989033;28;20057;-80
2022/02/15 02:31:45;;;;;;;16.83;1.75;;;;;;;3.61;58.50;100303.72;5001346;28;20030;-78
2022/02/15 02:34:14;;;;;;;6.30;0.60;;;;;;;4.11;57.19;100303.53;5005991;28;20041;-79
2022/02/15 02:36:46;;;;;;;5.68;0.70;;;;;;;3.54;59.27;100307.31;4989543;28;20496;-82
2022/02/15 02:39:14;;;;;;;7.85;0.57;;;;;;;3.57;59.08;100315.84;5007091;28;20048;-79
2022/02/15 02:41:41;;;;;;;4.88;0.68;;;;;;;3.67;58.88;100319.13;5021680;28;20030;-81
2022/02/15 02:44:07;;;;;;;4.72;0.52;;;;;;;3.72;58.60;100326.78;4996666;28;20053;-82
2022/02/15 02:46:33;;;;;;;9.88;0.60;;;;;;;3.54;59.21;100328.84;5002031;28;20038;-81
2022/02/15 02:48:59;;;;;;;12.00;1.02;;;;;;;3.42;59.47;100325.63;5001694;28;20049;-80
2022/02/15 02:51:25;;;;;;;12.23;0.70;;;;;;;3.62;59.12;100320.09;4985623;28;20095;-82
2022/02/15 02:53:51;;;;;;;4.35;0.50;;;;;;;3.82;58.24;100328.28;5005749;28;20041;-81
2022/02/15 02:56:17;;;;;;;5.95;0.40;;;;;;;3.72;58.32;100332.78;4986850;28;20033;-81
2022/02/15 02:58:43;;;;;;;10.73;0.93;;;;;;;3.26;59.30;100333.63;4990324;28;20041;-78
2022/02/15 03:01:08;;;;;;;8.68;0.63;;;;;;;3.58;58.71;100333.06;4984747;28;20098;-80
2022/02/15 03:03:40;;;;;;;8.02;0.50;;;;;;;3.62;58.61;100341.59;5011763;28;20507;-79
2022/02/15 03:06:07;;;;;;;12.20;0.60;;;;;;;3.83;57.72;100342.91;5002415;28;20225;-80
2022/02/15 03:08:34;;;;;;;6.28;0.90;;;;;;;3.64;58.06;100349.34;4992223;28;20034;-83
2022/02/15 03:11:00;;;;;;;8.07;1.27;;;;;;;3.88;57.20;100354.00;5007229;28;20116;-79
2022/02/15 03:13:52;;;;;;;10.82;1.58;;;;;;;3.66;57.78;100357.91;5013561;28;20041;-78
2022/02/15 03:16:30;;;;;;;1.85;0.40;;;;;;;3.86;57.28;100360.09;5004205;28;20345;-79
2022/02/15 03:18:56;;;;;;;7.45;0.70;;;;;;;3.78;57.65;100365.41;5003901;28;20520;-83
2022/02/15 03:21:23;;;;;;;10.88;0.77;;;;;;;3.71;57.09;100364.66;4985017;28;20025;-81
2022/02/15 03:23:50;;;;;;;9.93;0.70;;;;;;;3.60;57.39;100356.28;5003236;28;20230;-80
2022/02/15 03:26:16;;;;;;;3.63;2.05;;;;;;;3.64;57.90;100365.69;4989021;28;20044;-82
2022/02/15 03:28:43;;;;;;;11.02;1.25;;;;;;;3.57;58.04;100377.03;4987060;28;20573;-81
2022/02/15 03:31:09;;;;;;;19.45;1.27;;;;;;;3.16;58.78;100378.59;5005411;28;20229;-77
2022/02/15 03:33:36;;;;;;;5.97;0.60;;;;;;;3.19;59.15;100376.78;4989861;28;20044;-79
2022/02/15 03:36:03;;;;;;;5.82;0.65;;;;;;;3.93;57.08;100382.34;4989872;28;20035;-80
2022/02/15 03:38:31;;;;;;;4.05;1.52;;;;;;;3.56;57.61;100378.75;4990532;28;20107;-81
2022/02/15 03:43:54;;;;;;;9.73;0.90;;;;;;;4.21;55.67;100398.16;5012506;28;20060;-80
2022/02/15 03:46:24;;;;;;;8.10;0.77;;;;;;;3.92;56.63;100402.19;4990402;28;20454;-78
2022/02/15 03:48:51;;;;;;;9.88;0.50;;;;;;;3.98;56.58;100412.44;5008189;28;20117;-80
2022/02/15 03:51:18;;;;;;;12.18;0.70;;;;;;;4.25;56.11;100414.47;5003184;28;20039;-83
2022/02/15 03:53:48;;;;;;;10.27;0.93;;;;;;;3.68;57.75;100407.84;4991031;28;20060;-83
2022/02/15 03:56:14;;;;;;;6.13;0.38;;;;;;;3.83;57.06;100411.84;5006844;28;20040;-81
2022/02/15 03:58:41;;;;;;;11.45;1.15;;;;;;;3.71;57.68;100412.94;5010485;28;20117;-79
2022/02/15 04:01:12;;;;;;;5.63;0.63;;;;;;;4.23;55.97;100417.09;4992999;28;20038;-80
2022/02/15 04:03:38;;;;;;;6.65;0.68;;;;;;;3.94;56.49;100418.53;5006452;28;20500;-81
2022/02/15 04:06:04;;;;;;;6.95;0.93;;;;;;;3.53;57.79;100424.47;5007490;28;20099;-80
2022/02/15 04:08:29;;;;;;;12.90;0.90;;;;;;;4.16;56.10;100431.00;4990992;28;20115;-81
2022/02/15 04:10:56;;;;;;;7.57;1.13;;;;;;;3.54;57.77;100434.78;5005581;28;20040;-81
2022/02/15 04:13:26;;;;;;;11.32;0.77;;;;;;;4.03;56.53;100435.59;4989585;28;20033;-81
2022/02/15 04:15:51;;;;;;;3.95;0.70;;;;;;;4.58;54.56;100438.75;4997083;28;20543;-82
2022/02/15 04:18:18;;;;;;;6.35;0.35;;;;;;;4.06;55.99;100445.03;4988111;28;20526;-81
2022/02/15 04:20:46;;;;;;;9.27;0.90;;;;;;;4.13;56.12;100441.44;4997651;28;20033;-81
2022/02/15 04:23:12;;;;;;;7.55;0.40;;;;;;;3.80;57.05;100448.94;4988902;28;20116;-79
2022/02/15 04:25:38;;;;;;;4.72;0.43;;;;;;;3.77;57.16;100449.03;5010952;28;20117;-82
2022/02/15 04:28:11;;;;;;;5.45;0.55;;;;;;;4.29;55.26;100453.16;5010646;28;20056;-81
2022/02/15 04:30:37;;;;;;;10.10;1.08;;;;;;;4.07;56.51;100465.66;5023190;28;20022;-81
2022/02/15 04:33:03;;;;;;;6.22;1.30;;;;;;;4.11;56.74;100461.31;4988207;28;20512;-81
2022/02/15 04:35:29;;;;;;;7.97;1.00;;;;;;;4.40;55.98;100460.72;5010707;28;20499;-82
2022/02/15 04:37:54;;;;;;;11.45;0.55;;;;;;;4.06;56.81;100473.47;5001950;28;20128;-79
2022/02/15 04:40:21;;;;;;;5.75;0.43;;;;;;;3.80;57.68;100479.97;5008914;28;20037;-82
2022/02/15 04:42:48;;;;;;;6.60;0.50;;;;;;;3.92;57.85;100476.34;4971617;28;20102;-80
2022/02/15 04:45:15;;;;;;;5.38;1.05;;;;;;;3.91;57.85;100488.38;5004169;28;20037;-79
2022/02/15 04:47:44;;;;;;;2.20;0.52;;;;;;;3.39;59.49;100495.31;4995059;28;20072;-79
2022/02/15 04:50:10;;;;;;;5.65;0.77;;;;;;;4.22;56.96;100482.63;4986885;28;20037;-79
2022/02/15 04:52:36;;;;;;;6.70;0.75;;;;;;;3.85;57.79;100491.09;4991964;28;20625;-81
2022/02/15 04:55:06;;;;;;;4.15;0.63;;;;;;;3.54;59.11;100494.22;4989791;28;20038;-81
2022/02/15 04:57:31;;;;;;;5.47;0.30;;;;;;;4.00;57.64;100495.97;5008497;28;20037;-81
2022/02/15 05:00:00;;;;;;;5.22;0.47;;;;;;;3.57;58.18;100503.66;4996831;28;20506;-81
2022/02/15 05:02:46;;;;;;;9.32;0.30;;;;;;;3.32;59.45;100503.19;5005460;28;20045;-79
2022/02/15 05:05:12;;;;;;;2.30;0.30;;;;;;;3.72;58.60;100512.88;4993670;28;20109;-79
2022/02/15 05:07:42;;;;;;;2.75;0.32;;;;;;;3.74;58.04;100516.31;4990292;28;20046;-79
2022/02/15 05:10:09;;;;;;;5.43;0.45;;;;;;;3.66;58.81;100519.00;4991393;28;20391;-80
2022/02/15 05:12:39;;;;;;;2.85;0.70;;;;;;;3.26;60.42;100523.91;5004250;28;20412;-78
2022/02/15 05:15:09;;;;;;;4.90;0.60;;;;;;;3.04;61.20;100518.22;5010288;28;20033;-79
2022/02/15 05:17:49;;;;;;;3.28;0.40;;;;;;;3.38;60.39;100531.50;4998976;28;20069;-79
2022/02/15 05:20:17;;;;;;;9.45;1.00;;;;;;;3.21;60.88;100541.22;5009862;28;20030;-81
2022/02/15 05:22:45;;;;;;;7.75;1.05;;;;;;;3.35;60.65;100528.97;4993407;28;20132;-81
2022/02/15 05:25:13;;;;;;;3.10;0.70;;;;;;;2.99;60.85;100533.78;4987407;28;20042;-79
2022/02/15 05:27:40;;;;;;;5.57;0.80;;;;;;;3.56;59.49;100533.81;4993965;28;20046;-81
2022/02/15 05:30:15;;;;;;;6.03;0.68;;;;;;;3.77;58.96;100536.91;5011613;28;20029;-79
2022/02/15 05:32:53;;;;;;;6.05;0.50;;;;;;;3.32;59.88;100534.19;4989596;28;20116;-79
2022/02/15 05:35:19;;;;;;;3.90;0.65;;;;;;;3.50;59.59;100538.22;5002631;28;20055;-81
2022/02/15 05:37:46;;;;;;;14.55;1.15;;;;;;;3.47;59.17;100539.13;4979385;28;20404;-79
2022/02/15 05:40:19;;;;;;;10.60;0.45;;;;;;;3.30;60.12;100541.13;4990778;28;20399;-79
2022/02/15 05:42:53;;;;;;;1.75;0.20;;;;;;;3.48;59.67;100535.66;5011868;28;20119;-81
2022/02/15 05:45:18;;;;;;;2.92;0.73;;;;;;;3.72;58.90;100544.75;4986673;28;20096;-79
2022/02/15 05:48:00;;;;;;;7.78;0.28;;;;;;;3.93;58.47;100545.25;5006561;28;20120;-80
2022/02/15 05:53:13;;;;;;;6.03;0.75;;;;;;;3.69;58.97;100544.78;4994313;28;20046;-79
2022/02/15 05:55:39;;;;;;;1.70;0.10;;;;;;;3.77;58.71;100547.25;5004208;28;20034;-80
2022/02/15 05:58:05;;;;;;;5.70;1.02;;;;;;;3.57;59.41;100558.75;5009456;28;20421;-80
2022/02/15 06:00:33;;;;;;;3.53;0.30;;;;;;;3.41;59.62;100557.31;5003318;28;20041;-79
2022/02/15 06:02:59;;;;;;;3.20;0.10;;;;;;;3.18;60.31;100561.06;4984195;28;20178;-80
2022/02/15 06:05:34;;;;;;;4.57;0.65;;;;;;;3.13;60.56;100555.06;5012671;28;20041;-79
2022/02/15 06:08:00;;;;;;;3.45;0.63;;;;;;;3.21;60.04;100561.88;4987047;28;20045;-80
2022/02/15 06:10:30;;;;;;;3.38;0.15;;;;;;;3.55;58.73;100563.09;5012497;28;20026;-81
2022/02/15 06:13:06;;;;;;;4.38;0.47;;;;;;;2.97;60.30;100566.50;4988149;28;20045;-82
2022/02/15 06:15:32;;;;;;;7.60;0.30;;;;;;;3.31;59.41;100568.63;4989259;28;20352;-81
2022/02/15 06:18:13;;;;;;;2.63;0.10;;;;;;;3.10;59.83;100570.63;4990219;28;20050;-81
2022/02/15 06:20:45;;;;;;;;;;;;;;;2.86;60.70;100570.94;4998204;28;20111;-81
2022/02/15 06:23:15;;;;;;;8.60;0.70;;;;;;;2.90;60.23;100573.47;5010849;28;19921;-81
2022/02/15 06:25:41;;;;;;;3.78;1.15;;;;;;;3.11;59.98;100576.63;4996994;28;20034;-81
2022/02/15 06:28:07;;;;;;;2.85;0.20;;;;;;;3.04;59.76;100583.63;4996713;28;20050;-81
2022/02/15 06:30:56;;;;;;;6.75;0.20;;;;;;;3.24;59.21;100578.19;5001016;28;20045;-80
2022/02/15 06:33:26;;;;;;;4.95;0.60;;;;;;;3.41;58.41;100587.47;5003804;28;20160;-81
2022/02/15 06:35:52;;;;;;;4.75;0.25;;;;;;;3.09;59.50;100594.75;4986732;28;20038;-79
2022/02/15 06:38:18;;;;;;;3.50;0.22;;;;;;;2.65;60.76;100601.31;5000527;28;20422;-80
2022/02/15 06:40:53;;;;;;;4.25;0.60;;;;;;;3.01;59.96;100606.06;5005489;28;20026;-77
2022/02/15 06:43:29;;;;;;;3.78;0.10;;;;;;;2.93;59.94;100611.31;5004214;28;20110;-80
2022/02/15 06:45:54;;;;;;;4.15;0.30;;;;;;;3.35;59.12;100614.22;4988922;28;20042;-77
2022/02/15 06:48:25;;;;;;;4.85;0.55;;;;;;;3.21;59.51;100623.88;5003724;28;20069;-79
2022/02/15 06:50:55;;;;;;;10.02;0.75;;;;;;;3.16;59.47;100627.38;5007275;28;20037;-79
2022/02/15 06:53:46;;;;;;;5.27;0.30;;;;;;;2.84;60.60;100638.06;5005156;28;20046;-80
2022/02/15 06:56:38;;;;;;;6.18;0.40;;;;;;;3.35;58.46;100640.91;4991100;28;20479;-79
2022/02/15 06:59:05;;;;;;;9.02;1.65;;;;;;;3.46;58.26;100634.75;5008646;28;20129;-81
2022/02/15 07:01:39;;;;;;;3.00;0.20;;;;;;;3.19;58.39;100629.91;5006103;28;20373;-78
2022/02/15 07:04:08;;;;;;;0.43;0.15;;;;;;;2.90;59.51;100634.59;4990105;28;20095;-77
2022/02/15 07:06:33;;;;;;;2.72;0.20;;;;;;;2.48;60.59;100637.59;4994788;28;20037;-80
2022/02/15 07:08:59;;;;;;;2.33;0.38;;;;;;;3.00;59.49;100637.91;4995434;28;20044;-80
2022/02/15 07:11:26;;;;;;;3.22;0.10;;;;;;;3.05;59.21;100647.31;4990111;28;20504;-79
2022/02/15 07:13:52;;;;;;;2.65;0.30;;;;;;;2.69;60.10;100648.56;5002870;28;20174;-82
2022/02/15 07:16:18;;;;;;;3.70;0.10;;;;;;;3.01;59.53;100650.81;5009654;28;20235;-78
2022/02/15 07:18:45;;;;;;;1.35;0.20;;;;;;;3.41;58.52;100650.31;4995052;28;20069;-81
2022/02/15 07:21:11;;;;;;;1.60;0.22;;;;;;;3.06;59.42;100655.91;5004303;28;20065;-78
2022/02/15 07:23:56;;;;;;;1.33;0.35;;;;;;;3.19;59.48;100662.63;5006410;28;20067;-78
2022/02/15 07:26:40;;;;;;;1.20;0.30;;;;;;;3.52;58.38;100666.53;5021523;28;20415;-79
2022/02/15 07:29:25;;;;;;;5.47;0.50;;;;;;;3.69;57.95;100661.09;4994115;28;20050;-80
2022/02/15 07:32:08;;;;;;;4.35;0.40;;;;;;;3.89;57.34;100660.78;5026766;28;20061;-80
2022/02/15 07:34:34;;;;;;;5.97;0.55;;;;;;;3.98;57.09;100664.97;5009997;28;20120;-78
2022/02/15 07:36:59;;;;;;;2.10;0.50;;;;;;;4.01;57.17;100670.97;5024924;28;20128;-78
2022/02/15 07:39:25;;;;;;;7.13;0.52;;;;;;;4.21;56.81;100667.22;5008653;28;20037;-81
2022/02/15 07:41:51;;;;;;;4.68;0.65;;;;;;;4.35;56.78;100678.16;5007718;28;20120;-81
2022/02/15 07:44:23;;;;;;;4.80;0.80;;;;;;;4.35;56.87;100680.75;5025580;28;20037;-79
2022/02/15 07:46:49;;;;;;;1.80;0.60;;;;;;;4.49;56.30;100679.66;4998225;28;20129;-82
2022/02/15 07:49:15;;;;;;;3.65;1.00;;;;;;;4.43;56.11;100683.19;5007831;28;20026;-81
2022/02/15 07:51:41;;;;;;;3.13;0.63;;;;;;;4.54;55.97;100678.72;5000659;28;20043;-80
2022/02/15 07:54:07;;;;;;;4.75;0.57;;;;;;;4.08;57.19;100679.47;5012970;28;20045;-77
2022/02/15 07:56:33;;;;;;;1.20;0.40;;;;;;;4.22;57.06;100681.84;5001555;28;20048;-81
2022/02/15 07:59:01;;;;;;;7.03;0.47;;;;;;;4.49;56.43;100684.84;4998099;28;20045;-81
2022/02/15 08:01:27;;;;;;;3.28;0.28;;;;;;;4.56;55.54;100679.50;4991756;28;20045;-80
2022/02/15 08:03:53;;;;;;;3.90;0.88;;;;;;;4.48;55.85;100680.56;5003607;28;20291;-80
2022/02/15 08:06:25;;;;;;;5.82;0.68;;;;;;;4.33;57.10;100687.69;5009859;28;20029;-81
2022/02/15 08:08:54;;;;;;;2.50;0.57;;;;;;;4.34;56.69;100692.00;5008350;28;20042;-80
2022/02/15 08:11:20;;;;;;;7.28;0.50;;;;;;;4.42;56.70;100702.19;5013106;28;20437;-84
2022/02/15 08:13:46;;;;;;;6.18;1.20;;;;;;;4.38;56.54;100701.38;4992923;28;20045;-83
2022/02/15 08:16:11;;;;;;;1.80;0.73;;;;;;;4.51;56.64;100701.19;5008424;28;20061;-86
2022/02/15 08:18:41;;;;;;;5.93;0.70;;;;;;;4.35;56.85;100701.44;5014383;28;20045;-82
2022/02/15 08:21:08;;;;;;;3.00;0.88;;;;;;;4.63;56.07;100704.44;5018847;28;20026;-78
2022/02/15 08:23:34;;;;;;;3.40;1.00;;;;;;;4.54;56.51;100698.53;4991538;28;20118;-81
2022/02/15 08:26:04;;;;;;;8.90;1.30;;;;;;;4.56;56.73;100707.97;4990414;28;20120;-77
2022/02/15 08:28:39;;;;;;;12.85;2.17;;;;;;;4.59;56.67;100710.53;5024367;28;20060;-83
2022/02/15 08:31:11;;;;;;;7.40;1.75;;;;;;;4.80;56.13;100711.88;5013849;28;20073;-83
2022/02/15 08:33:38;;;;;;;9.30;2.13;;;;;;;4.65;56.25;100699.19;5004840;28;20309;-80
2022/02/15 08:36:04;;;;;;;7.03;2.38;;;;;;;4.48;56.89;100701.25;4988154;28;20407;-77
2022/02/15 08:38:33;;;;;;;10.00;3.80;;;;;;;4.73;56.63;100718.03;5011816;28;20113;-82
2022/02/15 08:41:05;;;;;;;9.30;3.00;;;;;;;4.34;57.31;100707.53;5011078;28;22162;-78
2022/02/15 08:43:31;;;;;;;7.28;2.78;;;;;;;4.82;55.93;100704.94;5006498;28;20064;-76
2022/02/15 08:45:57;;;;;;;8.50;3.08;;;;;;;4.97;55.66;100703.81;4996479;28;20037;-77
2022/02/15 08:48:23;;;;;;;6.45;2.85;;;;;;;5.10;55.75;100709.63;4992633;28;20045;-80
2022/02/15 08:50:49;;;;;;;11.43;2.50;;;;;;;4.90;55.30;100719.50;5000136;28;20037;-82
2022/02/15 08:53:16;;;;;;;10.07;3.47;;;;;;;4.65;56.80;100714.72;5000473;28;20033;-80
2022/02/15 08:55:42;;;;;;;10.93;3.25;;;;;;;5.40;54.58;100720.25;5011053;28;20064;-79
2022/02/15 08:58:10;;;;;;;11.00;3.88;;;;;;;5.07;54.69;100712.25;4990974;28;20079;-77
2022/02/15 09:00:36;;;;;;;15.13;2.83;;;;;;;4.75;56.33;100720.63;4992378;28;20033;-77
2022/02/15 09:03:01;;;;;;;13.30;2.97;;;;;;;4.86;55.47;100723.88;4999492;28;20045;-80
2022/02/15 09:05:27;;;;;;;8.95;3.65;;;;;;;5.70;53.81;100718.72;4988689;28;20462;-77
2022/02/15 09:07:53;;;;;;;7.78;4.05;;;;;;;6.05;53.26;100712.72;4999200;28;20045;-77
2022/02/15 09:10:18;;;;;;;11.32;3.80;;;;;;;5.36;54.07;100714.25;5008979;28;20482;-78
2022/02/15 09:12:44;;;;;;;8.02;4.07;;;;;;;4.71;55.39;100719.81;5008652;28;20487;-81
2022/02/15 09:15:13;;;;;;;12.05;3.58;;;;;;;5.34;53.51;100720.38;4993158;28;20093;-80
2022/02/15 09:17:40;;;;;;;16.58;3.97;;;;;;;5.58;53.56;100727.63;5009495;28;20046;-77
2022/02/15 09:20:08;;;;;;;15.18;4.35;;;;;;;5.76;52.95;100713.41;5008341;28;20033;-80
2022/02/15 09:22:34;;;;;;;8.45;3.58;;;;;;;5.71;52.23;100720.44;4985775;28;20522;-80
2022/02/15 09:24:59;;;;;;;10.65;3.35;;;;;;;5.09;53.67;100727.78;5002985;28;20037;-78
2022/02/15 09:27:28;;;;;;;8.60;3.75;;;;;;;4.76;55.03;100720.56;4984376;28;20133;-82
2022/02/15 09:29:54;;;;;;;12.85;4.13;;;;;;;4.84;54.58;100729.06;5003150;28;20025;-81
2022/02/15 09:32:21;;;;;;;10.52;4.38;;;;;;;5.16;55.24;100725.03;5001571;28;20517;-81
2022/02/15 09:34:47;;;;;;;10.35;4.38;;;;;;;5.35;53.71;100724.69;4988248;28;20052;-79
2022/02/15 09:37:13;;;;;;;10.88;4.70;;;;;;;5.01;53.55;100733.09;4991936;28;20042;-80
2022/02/15 09:39:39;;;;;;;11.90;4.68;;;;;;;5.08;52.96;100739.00;4986811;28;20037;-78
2022/02/15 09:42:05;;;;;;;12.98;3.90;;;;;;;5.06;53.51;100733.88;5003908;28;20233;-79
2022/02/15 09:44:31;;;;;;;11.93;5.47;;;;;;;6.02;52.36;100730.97;4996269;28;20065;-79
2022/02/15 09:46:57;;;;;;;8.73;3.90;;;;;;;5.49;52.58;100730.41;4997206;28;20022;-80
2022/02/15 09:52:12;;;;;;;13.25;5.03;;;;;;;5.14;52.90;100742.34;5003675;28;20049;-78
2022/02/15 09:54:39;;;;;;;6.68;3.70;;;;;;;5.17;53.52;100742.31;5001721;28;20046;-80
2022/02/15 09:57:06;;;;;;;11.32;5.38;;;;;;;5.83;51.92;100730.53;4993095;28;20587;-81
2022/02/15 09:59:32;;;;;;;10.73;4.30;;;;;;;5.79;52.05;100739.28;5012333;28;20060;-84
2022/02/15 10:02:04;;;;;;;11.50;5.70;;;;;;;5.71;52.54;100735.16;4995578;28;20036;-80
2022/02/15 10:04:34;;;;;;;7.32;4.10;;;;;;;5.20;52.94;100734.44;4993315;28;20098;-81
2022/02/15 10:07:02;;;;;;;21.00;5.10;;;;;;;6.06;51.12;100726.53;5010287;28;20084;-82
2022/02/15 10:10:02;;;;;;;13.07;4.40;;;;;;;6.77;50.60;100730.88;4999305;28;20053;-83
2022/02/15 10:13:00;;;;;;;9.35;4.10;;;;;;;6.15;50.04;100725.47;4996740;28;20628;-80
2022/02/15 10:15:53;;;;;;;11.43;3.70;;;;;;;6.70;49.51;100731.94;5016706;28;20037;-79
2022/02/15 10:18:23;;;;;;;13.30;4.95;;;;;;;6.85;48.07;100728.09;5001660;28;20044;-80
2022/02/15 10:21:07;;;;;;;17.80;3.97;;;;;;;7.01;48.84;100728.53;4990465;28;20533;-80
2022/02/15 10:31:05;;;;;;;10.55;5.03;;;;;;;5.52;52.02;100735.53;5025828;28;20128;-82
2022/02/15 10:42:02;;;;;;;13.65;5.28;;;;;;;6.59;49.42;100732.19;5023489;28;20037;-84
2022/02/15 10:46:04;;;;;;;13.70;4.88;;;;;;;6.04;50.75;100738.72;4984451;28;20408;-83
2022/02/15 11:19:41;;;;;;;9.43;5.57;;;;;;;6.53;50.38;100713.31;4832877;29;20072;-84
2022/02/15 11:22:16;;;;;;;16.02;7.20;;;;;;;5.73;51.14;100704.84;4856540;29;20051;-80
2022/02/15 11:25:44;;;;;;;12.30;6.65;;;;;;;5.63;51.46;100706.78;4957001;28;20214;-79
2022/02/15 11:28:16;;;;;;;13.48;6.22;;;;;;;6.18;49.57;100709.84;4955011;28;20042;-81
2022/02/15 11:30:43;;;;;;;12.02;4.55;;;;;;;6.24;49.70;100700.19;4947284;28;21077;-79
2022/02/15 11:33:08;;;;;;;7.25;4.55;;;;;;;5.51;50.07;100696.69;4995788;28;20052;-79
2022/02/15 11:35:34;;;;;;;16.67;5.25;;;;;;;5.88;50.38;100696.69;5023449;28;20022;-80
2022/02/15 11:38:48;;;;;;;11.57;5.10;;;;;;;6.69;47.89;100701.66;4998736;28;20107;-81
2022/02/15 11:41:18;;;;;;;12.38;4.55;;;;;;;6.59;47.89;100697.59;5006275;28;20266;-80
2022/02/15 11:56:01;;;;;;;11.98;4.35;;;;;;;6.16;47.13;100691.72;5030821;28;20083;-80
2022/02/15 11:59:54;;;;;;;11.43;3.17;;;;;;;5.97;46.76;100700.81;5002735;28;20056;-78
2022/02/15 12:02:25;;;;;;;9.35;4.30;;;;;;;6.44;46.67;100691.91;4955556;28;20137;-78
2022/02/15 12:05:00;;;;;;;7.53;2.55;;;;;;;5.64;47.74;100704.16;4997268;28;20258;-77
2022/02/15 12:07:43;;;;;;;7.35;2.60;;;;;;;5.80;47.43;100703.81;4987363;28;20080;-81
2022/02/15 12:10:11;;;;;;;5.25;2.42;;;;;;;5.69;47.64;100683.31;4999005;28;20025;-80
2022/02/15 12:12:41;;;;;;;4.55;2.38;;;;;;;5.62;47.90;100692.13;4980388;28;20044;-79
2022/02/15 12:15:11;;;;;;;3.13;1.42;;;;;;;5.94;47.11;100680.16;5017559;28;20107;-79
2022/02/15 12:17:57;;;;;;;5.85;2.10;;;;;;;5.85;46.54;100683.81;4991484;28;20590;-82
2022/02/15 12:20:27;;;;;;;8.70;3.05;;;;;;;6.07;46.03;100679.81;5011431;28;20048;-81
2022/02/15 12:22:58;;;;;;;5.45;1.77;;;;;;;6.45;46.07;100678.03;4977336;28;20046;-81
2022/02/15 12:26:11;;;;;;;10.88;2.50;;;;;;;6.33;45.90;100667.09;5033841;28;20042;-81
2022/02/15 12:28:46;;;;;;;5.47;2.33;;;;;;;5.79;47.18;100681.34;4992366;28;20045;-76
2022/02/15 12:31:59;;;;;;;9.00;3.17;;;;;;;5.90;46.36;100668.97;4999468;28;20652;-79
2022/02/15 12:34:30;;;;;;;8.02;1.98;;;;;;;5.53;46.27;100667.25;5029727;28;20034;-80
2022/02/15 12:36:58;;;;;;;7.90;2.88;;;;;;;5.69;46.16;100662.56;4997606;28;20044;-79
2022/02/15 12:40:00;;;;;;;6.95;1.75;;;;;;;5.67;46.90;100661.75;5006537;28;20464;-80
2022/02/15 13:17:52;;;;;;;2.67;0.28;;;;;;;4.19;43.28;100627.56;4974461;28;20520;-77
2022/02/15 13:20:23;;;;;;;2.15;0.40;;;;;;;5.71;41.70;100634.03;4942470;28;20309;-83
2022/02/15 13:23:12;;;;;;;1.45;0.32;;;;;;;5.89;41.59;100625.78;4951635;28;20060;-82
2022/02/15 14:30:33;;;;;;;5.10;0.68;;;;;;;5.38;41.00;100528.47;5016816;28;20041;-75
2022/02/15 14:32:59;;;;;;;5.80;1.02;;;;;;;5.78;40.34;100524.91;4994610;28;20079;-82
2022/02/15 14:35:26;;;;;;;2.42;0.60;;;;;;;5.03;41.70;100511.16;4992992;28;20042;-78